Dushanbe, Tajikistan
Current Conditions -  °F | °C
As of 9:00 AM on Tuesday 21 Oct 2014 (Local Time) from UTDD Reporting Station
Scattered Clouds Scattered Clouds  
Wind Chill: 66°   Ceiling: Unl
Heat Index: 66°   Visibility: 6mi
Dew Point: 50°   Wind: 2mph
Humidity: 56%   Direction: NA
Pressure: 30.24"   Gusts: NA
Location:  38.57°N, 68.78°E
Report Text: UTDD 210400Z VRB01MPS 9999 SCT066CB SCT130 19/10 Q1024 0919//60NOSIG RMK QFE700/0933
Loading
Personal Weather Stations






























Interactive Weather Map
Tropical Storm Tracking
New forecast layout! Learn more

10-Day Weather Forecast

Advertisements
Track Severe Weather on mobile